sensor_id;sensor_type;location;lat;lon;timestamp;temperature;humidity
4501;DHT22;2263;54.654;9.410;2023-04-24T00:01:53;14.10;80.50
4501;DHT22;2263;54.654;9.410;2023-04-24T00:04:22;14.10;80.50
4501;DHT22;2263;54.654;9.410;2023-04-24T00:06:53;14.10;80.70
4501;DHT22;2263;54.654;9.410;2023-04-24T00:09:24;14.10;80.90
4501;DHT22;2263;54.654;9.410;2023-04-24T00:11:52;14.10;80.70
4501;DHT22;2263;54.654;9.410;2023-04-24T00:14:20;14.10;81.30
4501;DHT22;2263;54.654;9.410;2023-04-24T00:16:48;14.10;81.30
4501;DHT22;2263;54.654;9.410;2023-04-24T00:19:16;14.10;81.50
4501;DHT22;2263;54.654;9.410;2023-04-24T00:21:43;14.10;81.70
4501;DHT22;2263;54.654;9.410;2023-04-24T00:24:11;14.10;81.70
4501;DHT22;2263;54.654;9.410;2023-04-24T00:26:39;14.00;81.70
4501;DHT22;2263;54.654;9.410;2023-04-24T00:29:06;14.10;81.70
4501;DHT22;2263;54.654;9.410;2023-04-24T00:31:36;14.10;81.90
4501;DHT22;2263;54.654;9.410;2023-04-24T00:34:04;14.10;81.80
4501;DHT22;2263;54.654;9.410;2023-04-24T00:36:32;14.00;81.80
4501;DHT22;2263;54.654;9.410;2023-04-24T00:39:00;14.00;81.90
4501;DHT22;2263;54.654;9.410;2023-04-24T00:41:28;14.00;82.00
4501;DHT22;2263;54.654;9.410;2023-04-24T00:43:55;14.00;82.20
4501;DHT22;2263;54.654;9.410;2023-04-24T00:46:23;14.00;82.30
4501;DHT22;2263;54.654;9.410;2023-04-24T00:48:50;14.00;82.00
4501;DHT22;2263;54.654;9.410;2023-04-24T00:51:19;14.00;82.20
4501;DHT22;2263;54.654;9.410;2023-04-24T00:53:47;14.00;82.40
4501;DHT22;2263;54.654;9.410;2023-04-24T00:56:14;13.90;82.40
4501;DHT22;2263;54.654;9.410;2023-04-24T00:58:43;14.00;82.30
4501;DHT22;2263;54.654;9.410;2023-04-24T01:01:11;13.90;82.30
4501;DHT22;2263;54.654;9.410;2023-04-24T01:03:40;13.90;82.50
4501;DHT22;2263;54.654;9.410;2023-04-24T01:06:09;13.90;82.50
4501;DHT22;2263;54.654;9.410;2023-04-24T01:08:38;13.90;82.50
4501;DHT22;2263;54.654;9.410;2023-04-24T01:11:07;13.90;82.50
4501;DHT22;2263;54.654;9.410;2023-04-24T01:13:34;13.90;82.70
4501;DHT22;2263;54.654;9.410;2023-04-24T01:16:02;13.90;82.80
4501;DHT22;2263;54.654;9.410;2023-04-24T01:18:30;13.90;82.80
4501;DHT22;2263;54.654;9.410;2023-04-24T01:20:58;13.80;82.90
4501;DHT22;2263;54.654;9.410;2023-04-24T01:23:27;13.80;83.00
4501;DHT22;2263;54.654;9.410;2023-04-24T01:25:55;13.80;83.00
4501;DHT22;2263;54.654;9.410;2023-04-24T01:28:22;13.80;83.10
4501;DHT22;2263;54.654;9.410;2023-04-24T01:30:50;13.80;83.00
4501;DHT22;2263;54.654;9.410;2023-04-24T01:33:18;13.80;83.20
4501;DHT22;2263;54.654;9.410;2023-04-24T01:35:48;13.80;83.20
4501;DHT22;2263;54.654;9.410;2023-04-24T01:38:16;13.80;83.20
4501;DHT22;2263;54.654;9.410;2023-04-24T01:40:44;13.80;83.30
4501;DHT22;2263;54.654;9.410;2023-04-24T01:43:12;13.80;83.20
4501;DHT22;2263;54.654;9.410;2023-04-24T01:45:40;13.80;83.40
4501;DHT22;2263;54.654;9.410;2023-04-24T01:48:08;13.80;83.30
4501;DHT22;2263;54.654;9.410;2023-04-24T01:50:35;13.70;83.30
4501;DHT22;2263;54.654;9.410;2023-04-24T01:53:03;13.70;83.40
4501;DHT22;2263;54.654;9.410;2023-04-24T01:55:31;13.70;83.30
4501;DHT22;2263;54.654;9.410;2023-04-24T01:57:59;13.70;83.40
4501;DHT22;2263;54.654;9.410;2023-04-24T02:00:29;13.70;83.40
4501;DHT22;2263;54.654;9.410;2023-04-24T02:02:57;13.70;83.40
4501;DHT22;2263;54.654;9.410;2023-04-24T02:05:24;13.70;83.50
4501;DHT22;2263;54.654;9.410;2023-04-24T02:07:52;13.70;83.50
4501;DHT22;2263;54.654;9.410;2023-04-24T02:10:19;13.70;83.40
4501;DHT22;2263;54.654;9.410;2023-04-24T02:12:47;13.70;83.60
4501;DHT22;2263;54.654;9.410;2023-04-24T02:15:15;13.70;83.60
4501;DHT22;2263;54.654;9.410;2023-04-24T02:17:42;13.60;83.60
4501;DHT22;2263;54.654;9.410;2023-04-24T02:20:10;13.60;83.60
4501;DHT22;2263;54.654;9.410;2023-04-24T02:22:38;13.60;83.70
4501;DHT22;2263;54.654;9.410;2023-04-24T02:25:05;13.60;83.70
4501;DHT22;2263;54.654;9.410;2023-04-24T02:27:33;13.60;83.80
4501;DHT22;2263;54.654;9.410;2023-04-24T02:30:01;13.60;83.90
4501;DHT22;2263;54.654;9.410;2023-04-24T02:32:31;13.60;83.80
4501;DHT22;2263;54.654;9.410;2023-04-24T02:34:59;13.60;83.90
4501;DHT22;2263;54.654;9.410;2023-04-24T02:37:27;13.60;83.80
4501;DHT22;2263;54.654;9.410;2023-04-24T02:39:54;13.60;83.90
4501;DHT22;2263;54.654;9.410;2023-04-24T02:42:22;13.60;84.00
4501;DHT22;2263;54.654;9.410;2023-04-24T02:44:49;13.60;84.10
4501;DHT22;2263;54.654;9.410;2023-04-24T02:47:18;13.60;84.00
4501;DHT22;2263;54.654;9.410;2023-04-24T02:49:46;13.50;84.00
4501;DHT22;2263;54.654;9.410;2023-04-24T02:52:13;13.60;84.00
4501;DHT22;2263;54.654;9.410;2023-04-24T02:54:42;13.50;84.10
4501;DHT22;2263;54.654;9.410;2023-04-24T02:57:09;13.50;84.00
4501;DHT22;2263;54.654;9.410;2023-04-24T02:59:37;13.50;84.10
4501;DHT22;2263;54.654;9.410;2023-04-24T03:02:05;13.50;84.20
4501;DHT22;2263;54.654;9.410;2023-04-24T03:04:32;13.50;84.20
4501;DHT22;2263;54.654;9.410;2023-04-24T03:07:00;13.50;84.00
4501;DHT22;2263;54.654;9.410;2023-04-24T03:09:28;13.50;84.20
4501;DHT22;2263;54.654;9.410;2023-04-24T03:11:55;13.50;84.00
4501;DHT22;2263;54.654;9.410;2023-04-24T03:14:24;13.50;84.10
4501;DHT22;2263;54.654;9.410;2023-04-24T03:16:52;13.50;84.20
4501;DHT22;2263;54.654;9.410;2023-04-24T03:19:19;13.50;84.10
4501;DHT22;2263;54.654;9.410;2023-04-24T03:21:47;13.40;84.30
4501;DHT22;2263;54.654;9.410;2023-04-24T03:24:14;13.40;84.20
4501;DHT22;2263;54.654;9.410;2023-04-24T03:26:42;13.40;84.20
4501;DHT22;2263;54.654;9.410;2023-04-24T03:29:10;13.40;84.30
4501;DHT22;2263;54.654;9.410;2023-04-24T03:31:37;13.40;84.40
4501;DHT22;2263;54.654;9.410;2023-04-24T03:34:05;13.40;84.00
4501;DHT22;2263;54.654;9.410;2023-04-24T03:36:32;13.40;84.50
4501;DHT22;2263;54.654;9.410;2023-04-24T03:39:00;13.40;84.40
4501;DHT22;2263;54.654;9.410;2023-04-24T03:41:27;13.40;84.50
4501;DHT22;2263;54.654;9.410;2023-04-24T03:43:56;13.30;84.50
4501;DHT22;2263;54.654;9.410;2023-04-24T03:46:23;13.30;84.30
4501;DHT22;2263;54.654;9.410;2023-04-24T03:48:51;13.30;84.30
4501;DHT22;2263;54.654;9.410;2023-04-24T03:51:19;13.40;84.60
4501;DHT22;2263;54.654;9.410;2023-04-24T03:53:46;13.30;84.50
4501;DHT22;2263;54.654;9.410;2023-04-24T03:56:14;13.30;84.60
4501;DHT22;2263;54.654;9.410;2023-04-24T03:58:42;13.30;84.50
4501;DHT22;2263;54.654;9.410;2023-04-24T04:01:10;13.30;84.30
4501;DHT22;2263;54.654;9.410;2023-04-24T04:03:38;13.30;84.40
4501;DHT22;2263;54.654;9.410;2023-04-24T04:06:06;13.30;84.40
4501;DHT22;2263;54.654;9.410;2023-04-24T04:08:34;13.30;84.30
4501;DHT22;2263;54.654;9.410;2023-04-24T04:11:01;13.30;84.60
4501;DHT22;2263;54.654;9.410;2023-04-24T04:13:31;13.30;84.30
4501;DHT22;2263;54.654;9.410;2023-04-24T04:15:59;13.30;84.60
4501;DHT22;2263;54.654;9.410;2023-04-24T04:18:26;13.20;84.40
4501;DHT22;2263;54.654;9.410;2023-04-24T04:20:54;13.30;84.50
4501;DHT22;2263;54.654;9.410;2023-04-24T04:23:22;13.20;84.20
4501;DHT22;2263;54.654;9.410;2023-04-24T04:25:49;13.30;85.00
4501;DHT22;2263;54.654;9.410;2023-04-24T04:28:19;13.20;84.20
4501;DHT22;2263;54.654;9.410;2023-04-24T04:30:47;13.20;84.50
4501;DHT22;2263;54.654;9.410;2023-04-24T04:33:15;13.20;84.50
4501;DHT22;2263;54.654;9.410;2023-04-24T04:35:43;13.20;84.40
4501;DHT22;2263;54.654;9.410;2023-04-24T04:38:11;13.20;84.60
4501;DHT22;2263;54.654;9.410;2023-04-24T04:40:38;13.10;84.60
4501;DHT22;2263;54.654;9.410;2023-04-24T04:43:07;13.10;84.70
4501;DHT22;2263;54.654;9.410;2023-04-24T04:45:35;13.10;84.80
4501;DHT22;2263;54.654;9.410;2023-04-24T04:48:02;13.10;84.70
4501;DHT22;2263;54.654;9.410;2023-04-24T04:50:30;13.10;84.70
4501;DHT22;2263;54.654;9.410;2023-04-24T04:52:58;13.10;84.60
4501;DHT22;2263;54.654;9.410;2023-04-24T04:55:25;13.10;84.40
4501;DHT22;2263;54.654;9.410;2023-04-24T04:57:53;13.10;84.50
4501;DHT22;2263;54.654;9.410;2023-04-24T05:00:28;13.10;84.40
4501;DHT22;2263;54.654;9.410;2023-04-24T05:03:02;13.00;84.30
4501;DHT22;2263;54.654;9.410;2023-04-24T05:05:46;13.00;84.20
4501;DHT22;2263;54.654;9.410;2023-04-24T05:08:14;13.00;84.10
4501;DHT22;2263;54.654;9.410;2023-04-24T05:10:53;13.00;84.00
4501;DHT22;2263;54.654;9.410;2023-04-24T05:13:21;13.00;84.00
4501;DHT22;2263;54.654;9.410;2023-04-24T05:16:05;13.00;83.90
4501;DHT22;2263;54.654;9.410;2023-04-24T05:18:33;13.00;84.00
4501;DHT22;2263;54.654;9.410;2023-04-24T05:21:01;13.00;84.10
4501;DHT22;2263;54.654;9.410;2023-04-24T05:23:29;13.00;84.00
4501;DHT22;2263;54.654;9.410;2023-04-24T05:25:56;12.90;83.90
4501;DHT22;2263;54.654;9.410;2023-04-24T05:28:24;13.00;84.00
4501;DHT22;2263;54.654;9.410;2023-04-24T05:30:55;13.00;84.10
4501;DHT22;2263;54.654;9.410;2023-04-24T05:33:23;12.90;84.10
4501;DHT22;2263;54.654;9.410;2023-04-24T05:35:50;12.90;84.00
4501;DHT22;2263;54.654;9.410;2023-04-24T05:38:18;12.90;84.30
4501;DHT22;2263;54.654;9.410;2023-04-24T05:40:46;12.90;84.10
4501;DHT22;2263;54.654;9.410;2023-04-24T05:43:14;12.90;84.20
4501;DHT22;2263;54.654;9.410;2023-04-24T05:45:41;12.90;84.30
4501;DHT22;2263;54.654;9.410;2023-04-24T05:48:09;12.90;84.10
4501;DHT22;2263;54.654;9.410;2023-04-24T05:50:37;12.90;84.30
4501;DHT22;2263;54.654;9.410;2023-04-24T05:53:04;12.80;84.30
4501;DHT22;2263;54.654;9.410;2023-04-24T05:55:34;12.80;84.40
4501;DHT22;2263;54.654;9.410;2023-04-24T05:58:02;12.80;84.50
4501;DHT22;2263;54.654;9.410;2023-04-24T06:00:29;12.80;84.50
4501;DHT22;2263;54.654;9.410;2023-04-24T06:02:57;12.80;84.40
4501;DHT22;2263;54.654;9.410;2023-04-24T06:05:25;12.80;84.60
4501;DHT22;2263;54.654;9.410;2023-04-24T06:07:53;12.80;84.60
4501;DHT22;2263;54.654;9.410;2023-04-24T06:10:21;12.80;84.60
4501;DHT22;2263;54.654;9.410;2023-04-24T06:12:48;12.70;84.40
4501;DHT22;2263;54.654;9.410;2023-04-24T06:15:16;12.80;84.60
4501;DHT22;2263;54.654;9.410;2023-04-24T06:17:44;12.70;84.80
4501;DHT22;2263;54.654;9.410;2023-04-24T06:20:12;12.80;84.70
4501;DHT22;2263;54.654;9.410;2023-04-24T06:22:39;12.80;84.70
4501;DHT22;2263;54.654;9.410;2023-04-24T06:25:07;12.80;85.00
4501;DHT22;2263;54.654;9.410;2023-04-24T06:27:35;12.70;85.00
4501;DHT22;2263;54.654;9.410;2023-04-24T06:30:03;12.70;85.30
4501;DHT22;2263;54.654;9.410;2023-04-24T06:32:30;12.70;85.20
4501;DHT22;2263;54.654;9.410;2023-04-24T06:34:58;12.70;85.20
4501;DHT22;2263;54.654;9.410;2023-04-24T06:37:25;12.80;85.20
4501;DHT22;2263;54.654;9.410;2023-04-24T06:39:53;12.80;85.00
4501;DHT22;2263;54.654;9.410;2023-04-24T06:42:21;12.80;85.00
4501;DHT22;2263;54.654;9.410;2023-04-24T06:44:49;12.80;85.40
4501;DHT22;2263;54.654;9.410;2023-04-24T06:47:16;12.80;85.60
4501;DHT22;2263;54.654;9.410;2023-04-24T06:49:44;12.80;85.50
4501;DHT22;2263;54.654;9.410;2023-04-24T06:52:12;12.80;85.50
4501;DHT22;2263;54.654;9.410;2023-04-24T06:54:41;12.70;85.50
4501;DHT22;2263;54.654;9.410;2023-04-24T06:57:09;12.70;85.50
4501;DHT22;2263;54.654;9.410;2023-04-24T06:59:37;12.70;85.60
4501;DHT22;2263;54.654;9.410;2023-04-24T07:02:05;12.70;85.50
4501;DHT22;2263;54.654;9.410;2023-04-24T07:04:33;12.70;85.60
4501;DHT22;2263;54.654;9.410;2023-04-24T07:07:01;12.70;85.50
4501;DHT22;2263;54.654;9.410;2023-04-24T07:09:29;12.70;85.60
4501;DHT22;2263;54.654;9.410;2023-04-24T07:11:57;12.70;85.70
4501;DHT22;2263;54.654;9.410;2023-04-24T07:14:24;12.70;85.80
4501;DHT22;2263;54.654;9.410;2023-04-24T07:16:52;12.70;85.80
4501;DHT22;2263;54.654;9.410;2023-04-24T07:19:20;12.70;85.90
4501;DHT22;2263;54.654;9.410;2023-04-24T07:21:47;12.70;85.80
4501;DHT22;2263;54.654;9.410;2023-04-24T07:24:15;12.70;85.90
4501;DHT22;2263;54.654;9.410;2023-04-24T07:26:43;12.60;85.70
4501;DHT22;2263;54.654;9.410;2023-04-24T07:29:10;12.60;86.00
4501;DHT22;2263;54.654;9.410;2023-04-24T07:31:38;12.60;85.90
4501;DHT22;2263;54.654;9.410;2023-04-24T07:34:06;12.60;86.00
4501;DHT22;2263;54.654;9.410;2023-04-24T07:36:33;12.60;86.00
4501;DHT22;2263;54.654;9.410;2023-04-24T07:39:01;12.60;85.90
4501;DHT22;2263;54.654;9.410;2023-04-24T07:41:29;12.60;86.20
4501;DHT22;2263;54.654;9.410;2023-04-24T07:43:57;12.60;86.10
4501;DHT22;2263;54.654;9.410;2023-04-24T07:46:25;12.60;86.20
4501;DHT22;2263;54.654;9.410;2023-04-24T07:48:57;12.60;86.30
4501;DHT22;2263;54.654;9.410;2023-04-24T07:51:39;12.60;86.30
4501;DHT22;2263;54.654;9.410;2023-04-24T07:54:07;12.60;86.40
4501;DHT22;2263;54.654;9.410;2023-04-24T07:56:35;12.60;86.30
4501;DHT22;2263;54.654;9.410;2023-04-24T07:59:06;12.60;86.30
4501;DHT22;2263;54.654;9.410;2023-04-24T08:01:34;12.60;86.30
4501;DHT22;2263;54.654;9.410;2023-04-24T08:04:01;12.50;86.20
4501;DHT22;2263;54.654;9.410;2023-04-24T08:06:29;12.60;86.40
4501;DHT22;2263;54.654;9.410;2023-04-24T08:08:58;12.60;86.40
4501;DHT22;2263;54.654;9.410;2023-04-24T08:11:26;12.50;86.40
4501;DHT22;2263;54.654;9.410;2023-04-24T08:13:54;12.60;86.70
4501;DHT22;2263;54.654;9.410;2023-04-24T08:16:22;12.50;86.60
4501;DHT22;2263;54.654;9.410;2023-04-24T08:18:52;12.50;86.60
4501;DHT22;2263;54.654;9.410;2023-04-24T08:21:20;12.60;86.50
4501;DHT22;2263;54.654;9.410;2023-04-24T08:23:48;12.60;86.50
4501;DHT22;2263;54.654;9.410;2023-04-24T08:26:16;12.60;87.50
4501;DHT22;2263;54.654;9.410;2023-04-24T08:28:43;12.60;87.00
4501;DHT22;2263;54.654;9.410;2023-04-24T08:31:11;12.60;86.80
4501;DHT22;2263;54.654;9.410;2023-04-24T08:33:39;12.60;86.80
4501;DHT22;2263;54.654;9.410;2023-04-24T08:36:08;12.60;86.80
4501;DHT22;2263;54.654;9.410;2023-04-24T08:38:35;12.60;87.00
4501;DHT22;2263;54.654;9.410;2023-04-24T08:41:03;12.60;87.10
4501;DHT22;2263;54.654;9.410;2023-04-24T08:43:33;12.50;87.00
4501;DHT22;2263;54.654;9.410;2023-04-24T08:46:01;12.50;87.20
4501;DHT22;2263;54.654;9.410;2023-04-24T08:48:34;12.50;87.30
4501;DHT22;2263;54.654;9.410;2023-04-24T08:51:02;12.50;87.20
4501;DHT22;2263;54.654;9.410;2023-04-24T08:53:32;12.50;87.20
4501;DHT22;2263;54.654;9.410;2023-04-24T08:56:01;12.50;87.10
4501;DHT22;2263;54.654;9.410;2023-04-24T08:58:29;12.50;87.10
4501;DHT22;2263;54.654;9.410;2023-04-24T09:00:58;12.50;87.10
4501;DHT22;2263;54.654;9.410;2023-04-24T09:03:28;12.50;87.20
4501;DHT22;2263;54.654;9.410;2023-04-24T09:05:57;12.50;87.20
4501;DHT22;2263;54.654;9.410;2023-04-24T09:08:26;12.50;87.30
4501;DHT22;2263;54.654;9.410;2023-04-24T09:10:55;12.50;87.50
4501;DHT22;2263;54.654;9.410;2023-04-24T09:13:25;12.50;87.60
4501;DHT22;2263;54.654;9.410;2023-04-24T09:15:53;12.50;87.50
4501;DHT22;2263;54.654;9.410;2023-04-24T09:18:21;12.50;87.60
4501;DHT22;2263;54.654;9.410;2023-04-24T09:21:03;12.50;87.50
4501;DHT22;2263;54.654;9.410;2023-04-24T09:23:31;12.50;87.30
4501;DHT22;2263;54.654;9.410;2023-04-24T09:26:00;12.50;87.30
4501;DHT22;2263;54.654;9.410;2023-04-24T09:28:35;12.50;87.20
4501;DHT22;2263;54.654;9.410;2023-04-24T09:31:22;12.50;87.30
4501;DHT22;2263;54.654;9.410;2023-04-24T09:34:01;12.50;87.50
4501;DHT22;2263;54.654;9.410;2023-04-24T09:39:12;12.40;87.40
4501;DHT22;2263;54.654;9.410;2023-04-24T09:41:55;12.40;87.30
4501;DHT22;2263;54.654;9.410;2023-04-24T09:44:27;12.40;87.20
4501;DHT22;2263;54.654;9.410;2023-04-24T09:46:58;12.50;87.30
4501;DHT22;2263;54.654;9.410;2023-04-24T09:49:30;12.50;87.20
4501;DHT22;2263;54.654;9.410;2023-04-24T09:52:04;12.40;87.40
4501;DHT22;2263;54.654;9.410;2023-04-24T09:54:32;12.50;87.60
4501;DHT22;2263;54.654;9.410;2023-04-24T09:57:00;12.40;87.60
4501;DHT22;2263;54.654;9.410;2023-04-24T09:59:28;12.50;87.70
4501;DHT22;2263;54.654;9.410;2023-04-24T10:01:56;12.50;87.50
4501;DHT22;2263;54.654;9.410;2023-04-24T10:04:27;12.40;87.60
4501;DHT22;2263;54.654;9.410;2023-04-24T10:06:56;12.50;88.00
4501;DHT22;2263;54.654;9.410;2023-04-24T10:09:26;12.50;87.90
4501;DHT22;2263;54.654;9.410;2023-04-24T10:11:54;12.50;87.80
4501;DHT22;2263;54.654;9.410;2023-04-24T10:14:24;12.50;87.80
4501;DHT22;2263;54.654;9.410;2023-04-24T10:16:55;12.50;87.70
4501;DHT22;2263;54.654;9.410;2023-04-24T10:19:26;12.50;87.80
4501;DHT22;2263;54.654;9.410;2023-04-24T10:21:53;12.50;87.80
4501;DHT22;2263;54.654;9.410;2023-04-24T10:24:22;12.50;88.50
4501;DHT22;2263;54.654;9.410;2023-04-24T10:26:50;12.50;88.30
4501;DHT22;2263;54.654;9.410;2023-04-24T10:29:19;12.50;88.10
4501;DHT22;2263;54.654;9.410;2023-04-24T10:31:46;12.50;88.30
4501;DHT22;2263;54.654;9.410;2023-04-24T10:34:16;12.50;88.50
4501;DHT22;2263;54.654;9.410;2023-04-24T10:36:50;12.50;88.30
4501;DHT22;2263;54.654;9.410;2023-04-24T10:39:18;12.40;88.10
4501;DHT22;2263;54.654;9.410;2023-04-24T10:41:54;12.40;88.10
4501;DHT22;2263;54.654;9.410;2023-04-24T10:44:24;12.40;88.10
4501;DHT22;2263;54.654;9.410;2023-04-24T10:46:55;12.40;88.10
4501;DHT22;2263;54.654;9.410;2023-04-24T10:49:31;12.40;88.00
4501;DHT22;2263;54.654;9.410;2023-04-24T10:52:03;12.40;88.00
4501;DHT22;2263;54.654;9.410;2023-04-24T10:54:36;12.50;88.10
4501;DHT22;2263;54.654;9.410;2023-04-24T10:57:28;12.40;88.00
4501;DHT22;2263;54.654;9.410;2023-04-24T11:00:30;12.40;88.20
4501;DHT22;2263;54.654;9.410;2023-04-24T11:02:58;12.40;88.00
4501;DHT22;2263;54.654;9.410;2023-04-24T11:05:52;12.40;87.90
4501;DHT22;2263;54.654;9.410;2023-04-24T11:08:32;12.40;87.90
4501;DHT22;2263;54.654;9.410;2023-04-24T11:11:08;12.40;88.20
4501;DHT22;2263;54.654;9.410;2023-04-24T11:21:48;12.40;88.20
4501;DHT22;2263;54.654;9.410;2023-04-24T11:24:53;12.40;88.00
4501;DHT22;2263;54.654;9.410;2023-04-24T11:27:21;12.40;88.50
4501;DHT22;2263;54.654;9.410;2023-04-24T11:32:28;12.40;88.20
4501;DHT22;2263;54.654;9.410;2023-04-24T11:35:16;12.40;88.20
4501;DHT22;2263;54.654;9.410;2023-04-24T11:37:46;12.40;88.60
4501;DHT22;2263;54.654;9.410;2023-04-24T11:40:34;12.40;88.50
4501;DHT22;2263;54.654;9.410;2023-04-24T11:43:02;12.40;88.80
4501;DHT22;2263;54.654;9.410;2023-04-24T11:45:34;12.30;88.70
4501;DHT22;2263;54.654;9.410;2023-04-24T11:48:03;12.40;88.80
4501;DHT22;2263;54.654;9.410;2023-04-24T11:50:31;12.40;88.60
4501;DHT22;2263;54.654;9.410;2023-04-24T11:52:58;12.40;88.60
4501;DHT22;2263;54.654;9.410;2023-04-24T11:55:28;12.40;88.70
4501;DHT22;2263;54.654;9.410;2023-04-24T11:57:58;12.40;88.70
4501;DHT22;2263;54.654;9.410;2023-04-24T12:00:30;12.40;88.60
4501;DHT22;2263;54.654;9.410;2023-04-24T12:03:09;12.40;88.50
4501;DHT22;2263;54.654;9.410;2023-04-24T12:05:38;12.40;88.80
4501;DHT22;2263;54.654;9.410;2023-04-24T12:08:07;12.40;89.10
4501;DHT22;2263;54.654;9.410;2023-04-24T12:10:34;12.40;89.10
4501;DHT22;2263;54.654;9.410;2023-04-24T12:13:02;12.40;89.20
4501;DHT22;2263;54.654;9.410;2023-04-24T12:15:30;12.50;89.20
4501;DHT22;2263;54.654;9.410;2023-04-24T12:17:59;12.50;89.30
4501;DHT22;2263;54.654;9.410;2023-04-24T12:20:28;12.40;89.10
4501;DHT22;2263;54.654;9.410;2023-04-24T12:22:58;12.40;89.00
4501;DHT22;2263;54.654;9.410;2023-04-24T12:25:33;12.40;89.00
4501;DHT22;2263;54.654;9.410;2023-04-24T12:30:34;12.40;89.00
4501;DHT22;2263;54.654;9.410;2023-04-24T12:33:02;12.40;89.00
4501;DHT22;2263;54.654;9.410;2023-04-24T12:35:32;12.40;89.00
4501;DHT22;2263;54.654;9.410;2023-04-24T12:38:11;12.40;89.00
4501;DHT22;2263;54.654;9.410;2023-04-24T12:40:41;12.30;89.20
4501;DHT22;2263;54.654;9.410;2023-04-24T12:43:16;12.40;89.20
4501;DHT22;2263;54.654;9.410;2023-04-24T12:45:44;12.30;89.20
4501;DHT22;2263;54.654;9.410;2023-04-24T12:48:12;12.30;89.10
4501;DHT22;2263;54.654;9.410;2023-04-24T12:50:41;12.30;88.90
4501;DHT22;2263;54.654;9.410;2023-04-24T12:53:12;12.30;89.20
4501;DHT22;2263;54.654;9.410;2023-04-24T12:55:40;12.30;89.30
4501;DHT22;2263;54.654;9.410;2023-04-24T12:58:08;12.30;89.30
4501;DHT22;2263;54.654;9.410;2023-04-24T13:00:36;12.30;89.20
4501;DHT22;2263;54.654;9.410;2023-04-24T13:03:04;12.30;89.10
4501;DHT22;2263;54.654;9.410;2023-04-24T13:05:32;12.30;89.10
4501;DHT22;2263;54.654;9.410;2023-04-24T13:08:00;12.30;89.00
4501;DHT22;2263;54.654;9.410;2023-04-24T13:10:27;12.30;89.10
4501;DHT22;2263;54.654;9.410;2023-04-24T13:12:55;12.30;89.30
4501;DHT22;2263;54.654;9.410;2023-04-24T13:15:23;12.30;89.10
4501;DHT22;2263;54.654;9.410;2023-04-24T13:17:50;12.30;88.90
4501;DHT22;2263;54.654;9.410;2023-04-24T13:20:18;12.30;89.00
4501;DHT22;2263;54.654;9.410;2023-04-24T13:22:46;12.30;89.00
4501;DHT22;2263;54.654;9.410;2023-04-24T13:25:13;12.30;88.90
4501;DHT22;2263;54.654;9.410;2023-04-24T13:27:44;12.30;88.80
4501;DHT22;2263;54.654;9.410;2023-04-24T13:30:12;12.30;88.80
4501;DHT22;2263;54.654;9.410;2023-04-24T13:32:40;12.30;88.70
4501;DHT22;2263;54.654;9.410;2023-04-24T13:35:08;12.30;88.80
4501;DHT22;2263;54.654;9.410;2023-04-24T13:37:35;12.30;88.90
4501;DHT22;2263;54.654;9.410;2023-04-24T13:40:03;12.30;88.70
4501;DHT22;2263;54.654;9.410;2023-04-24T13:42:33;12.30;88.70
4501;DHT22;2263;54.654;9.410;2023-04-24T13:45:01;12.30;88.70
4501;DHT22;2263;54.654;9.410;2023-04-24T13:47:48;12.30;88.60
4501;DHT22;2263;54.654;9.410;2023-04-24T13:50:18;12.30;88.70
4501;DHT22;2263;54.654;9.410;2023-04-24T13:52:45;12.30;88.70
4501;DHT22;2263;54.654;9.410;2023-04-24T13:55:13;12.20;88.60
4501;DHT22;2263;54.654;9.410;2023-04-24T13:57:41;12.20;88.80
4501;DHT22;2263;54.654;9.410;2023-04-24T14:00:09;12.30;88.70
4501;DHT22;2263;54.654;9.410;2023-04-24T14:02:37;12.30;88.60
4501;DHT22;2263;54.654;9.410;2023-04-24T14:05:05;12.30;88.50
4501;DHT22;2263;54.654;9.410;2023-04-24T14:07:33;12.30;88.60
4501;DHT22;2263;54.654;9.410;2023-04-24T14:10:01;12.30;88.70
4501;DHT22;2263;54.654;9.410;2023-04-24T14:12:29;12.30;88.50
4501;DHT22;2263;54.654;9.410;2023-04-24T14:14:56;12.30;88.60
4501;DHT22;2263;54.654;9.410;2023-04-24T14:17:24;12.30;88.50
4501;DHT22;2263;54.654;9.410;2023-04-24T14:19:51;12.30;88.50
4501;DHT22;2263;54.654;9.410;2023-04-24T14:22:23;12.30;88.70
4501;DHT22;2263;54.654;9.410;2023-04-24T14:24:51;12.30;88.70
4501;DHT22;2263;54.654;9.410;2023-04-24T14:27:18;12.30;88.60
4501;DHT22;2263;54.654;9.410;2023-04-24T14:29:46;12.30;88.50
4501;DHT22;2263;54.654;9.410;2023-04-24T14:32:13;12.30;88.50
4501;DHT22;2263;54.654;9.410;2023-04-24T14:34:42;12.30;88.40
4501;DHT22;2263;54.654;9.410;2023-04-24T14:37:09;12.30;88.50
4501;DHT22;2263;54.654;9.410;2023-04-24T14:39:37;12.30;88.50
4501;DHT22;2263;54.654;9.410;2023-04-24T14:42:05;12.30;88.60
4501;DHT22;2263;54.654;9.410;2023-04-24T14:44:32;12.30;88.60
4501;DHT22;2263;54.654;9.410;2023-04-24T14:47:01;12.30;88.70
4501;DHT22;2263;54.654;9.410;2023-04-24T14:49:28;12.20;88.60
4501;DHT22;2263;54.654;9.410;2023-04-24T14:51:56;12.20;88.50
4501;DHT22;2263;54.654;9.410;2023-04-24T14:54:23;12.20;88.70
4501;DHT22;2263;54.654;9.410;2023-04-24T14:56:52;12.20;88.60
4501;DHT22;2263;54.654;9.410;2023-04-24T14:59:19;12.20;88.70
4501;DHT22;2263;54.654;9.410;2023-04-24T15:01:47;12.10;88.60
4501;DHT22;2263;54.654;9.410;2023-04-24T15:04:17;12.20;88.80
4501;DHT22;2263;54.654;9.410;2023-04-24T15:06:45;12.20;88.80
4501;DHT22;2263;54.654;9.410;2023-04-24T15:09:13;12.20;88.90
4501;DHT22;2263;54.654;9.410;2023-04-24T15:11:41;12.20;88.90
4501;DHT22;2263;54.654;9.410;2023-04-24T15:14:08;12.20;88.80
4501;DHT22;2263;54.654;9.410;2023-04-24T15:16:38;12.10;88.90
4501;DHT22;2263;54.654;9.410;2023-04-24T15:19:06;12.10;88.80
4501;DHT22;2263;54.654;9.410;2023-04-24T15:21:33;12.10;88.90
4501;DHT22;2263;54.654;9.410;2023-04-24T15:24:01;12.10;88.80
4501;DHT22;2263;54.654;9.410;2023-04-24T15:26:28;12.10;88.80
4501;DHT22;2263;54.654;9.410;2023-04-24T15:28:56;12.10;88.70
4501;DHT22;2263;54.654;9.410;2023-04-24T15:31:24;12.10;88.70
4501;DHT22;2263;54.654;9.410;2023-04-24T15:33:52;12.10;88.80
4501;DHT22;2263;54.654;9.410;2023-04-24T15:36:20;12.10;88.80
4501;DHT22;2263;54.654;9.410;2023-04-24T15:38:48;12.10;88.80
4501;DHT22;2263;54.654;9.410;2023-04-24T15:41:16;12.10;89.00
4501;DHT22;2263;54.654;9.410;2023-04-24T15:43:44;12.10;89.10
4501;DHT22;2263;54.654;9.410;2023-04-24T15:46:12;12.10;89.00
4501;DHT22;2263;54.654;9.410;2023-04-24T15:48:42;12.10;89.00
4501;DHT22;2263;54.654;9.410;2023-04-24T15:51:09;12.10;89.00
4501;DHT22;2263;54.654;9.410;2023-04-24T15:53:37;12.10;89.00
4501;DHT22;2263;54.654;9.410;2023-04-24T15:56:04;12.10;88.80
4501;DHT22;2263;54.654;9.410;2023-04-24T15:58:32;12.10;88.80
4501;DHT22;2263;54.654;9.410;2023-04-24T16:01:00;12.10;88.90
4501;DHT22;2263;54.654;9.410;2023-04-24T16:03:28;12.00;88.90
4501;DHT22;2263;54.654;9.410;2023-04-24T16:05:56;12.10;89.50
4501;DHT22;2263;54.654;9.410;2023-04-24T16:08:23;12.00;88.90
4501;DHT22;2263;54.654;9.410;2023-04-24T16:10:51;12.00;89.00
4501;DHT22;2263;54.654;9.410;2023-04-24T16:13:19;12.00;88.90
4501;DHT22;2263;54.654;9.410;2023-04-24T16:15:46;12.00;88.90
4501;DHT22;2263;54.654;9.410;2023-04-24T16:18:14;12.00;89.60
4501;DHT22;2263;54.654;9.410;2023-04-24T16:20:43;12.00;89.00
4501;DHT22;2263;54.654;9.410;2023-04-24T16:23:11;12.00;88.90
4501;DHT22;2263;54.654;9.410;2023-04-24T16:25:39;12.00;89.10
4501;DHT22;2263;54.654;9.410;2023-04-24T16:28:06;11.90;88.90
4501;DHT22;2263;54.654;9.410;2023-04-24T16:30:34;11.90;89.70